sensor_id;sensor_type;location;lat;lon;timestamp;P1;durP1;ratioP1;P2;durP2;ratioP2
25331;SDS011;13284;52.748;13.452;2023-11-19T00:00:51;6.60;;;5.90;;
25331;SDS011;13284;52.748;13.452;2023-11-19T00:03:17;5.80;;;5.10;;
25331;SDS011;13284;52.748;13.452;2023-11-19T00:05:43;8.70;;;6.07;;
25331;SDS011;13284;52.748;13.452;2023-11-19T00:08:09;5.97;;;4.93;;
25331;SDS011;13284;52.748;13.452;2023-11-19T00:10:35;8.37;;;6.10;;
25331;SDS011;13284;52.748;13.452;2023-11-19T00:13:01;6.50;;;5.30;;
25331;SDS011;13284;52.748;13.452;2023-11-19T00:15:27;8.40;;;5.57;;
25331;SDS011;13284;52.748;13.452;2023-11-19T00:17:53;7.53;;;5.70;;
25331;SDS011;13284;52.748;13.452;2023-11-19T00:20:19;7.37;;;5.50;;
25331;SDS011;13284;52.748;13.452;2023-11-19T00:22:51;6.53;;;5.27;;
25331;SDS011;13284;52.748;13.452;2023-11-19T00:25:19;5.60;;;4.83;;
25331;SDS011;13284;52.748;13.452;2023-11-19T00:27:46;6.30;;;4.80;;
25331;SDS011;13284;52.748;13.452;2023-11-19T00:30:12;9.60;;;5.80;;
25331;SDS011;13284;52.748;13.452;2023-11-19T00:32:39;6.70;;;5.50;;
25331;SDS011;13284;52.748;13.452;2023-11-19T00:35:05;8.10;;;4.97;;
25331;SDS011;13284;52.748;13.452;2023-11-19T00:37:32;7.33;;;4.87;;
25331;SDS011;13284;52.748;13.452;2023-11-19T00:39:58;6.63;;;4.70;;
25331;SDS011;13284;52.748;13.452;2023-11-19T00:42:23;8.30;;;5.97;;
25331;SDS011;13284;52.748;13.452;2023-11-19T00:44:49;6.60;;;4.97;;
25331;SDS011;13284;52.748;13.452;2023-11-19T00:47:15;6.00;;;4.80;;
25331;SDS011;13284;52.748;13.452;2023-11-19T00:49:41;8.50;;;5.60;;
25331;SDS011;13284;52.748;13.452;2023-11-19T00:52:07;7.07;;;6.23;;
25331;SDS011;13284;52.748;13.452;2023-11-19T00:54:33;6.73;;;5.43;;
25331;SDS011;13284;52.748;13.452;2023-11-19T00:56:59;6.57;;;5.70;;
25331;SDS011;13284;52.748;13.452;2023-11-19T00:59:26;8.33;;;5.63;;
25331;SDS011;13284;52.748;13.452;2023-11-19T01:01:53;8.67;;;5.30;;
25331;SDS011;13284;52.748;13.452;2023-11-19T01:04:19;7.60;;;6.30;;
25331;SDS011;13284;52.748;13.452;2023-11-19T01:06:44;9.50;;;6.30;;
25331;SDS011;13284;52.748;13.452;2023-11-19T01:09:10;6.97;;;5.70;;
25331;SDS011;13284;52.748;13.452;2023-11-19T01:11:35;8.07;;;6.07;;
25331;SDS011;13284;52.748;13.452;2023-11-19T01:14:04;8.10;;;5.83;;
25331;SDS011;13284;52.748;13.452;2023-11-19T01:16:29;7.60;;;5.90;;
25331;SDS011;13284;52.748;13.452;2023-11-19T01:18:55;6.97;;;5.20;;
25331;SDS011;13284;52.748;13.452;2023-11-19T01:21:21;8.23;;;5.77;;
25331;SDS011;13284;52.748;13.452;2023-11-19T01:23:47;7.10;;;5.10;;
25331;SDS011;13284;52.748;13.452;2023-11-19T01:26:12;7.77;;;6.00;;
25331;SDS011;13284;52.748;13.452;2023-11-19T01:28:38;6.90;;;5.67;;
25331;SDS011;13284;52.748;13.452;2023-11-19T01:31:11;7.10;;;5.87;;
25331;SDS011;13284;52.748;13.452;2023-11-19T01:33:37;7.30;;;6.60;;
25331;SDS011;13284;52.748;13.452;2023-11-19T01:36:03;8.10;;;6.37;;
25331;SDS011;13284;52.748;13.452;2023-11-19T01:38:29;9.30;;;5.60;;
25331;SDS011;13284;52.748;13.452;2023-11-19T01:40:56;6.90;;;4.93;;
25331;SDS011;13284;52.748;13.452;2023-11-19T01:46:17;9.77;;;6.30;;
25331;SDS011;13284;52.748;13.452;2023-11-19T01:48:45;8.10;;;5.30;;
25331;SDS011;13284;52.748;13.452;2023-11-19T01:51:12;7.13;;;5.67;;
25331;SDS011;13284;52.748;13.452;2023-11-19T01:53:41;6.40;;;5.60;;
25331;SDS011;13284;52.748;13.452;2023-11-19T01:56:08;7.83;;;6.20;;
25331;SDS011;13284;52.748;13.452;2023-11-19T01:58:35;6.43;;;4.63;;
25331;SDS011;13284;52.748;13.452;2023-11-19T02:01:01;6.20;;;5.60;;
25331;SDS011;13284;52.748;13.452;2023-11-19T02:03:29;5.20;;;4.70;;
25331;SDS011;13284;52.748;13.452;2023-11-19T02:05:57;7.73;;;5.60;;
25331;SDS011;13284;52.748;13.452;2023-11-19T02:08:24;6.87;;;5.37;;
25331;SDS011;13284;52.748;13.452;2023-11-19T02:10:51;6.50;;;4.47;;
25331;SDS011;13284;52.748;13.452;2023-11-19T02:13:17;6.40;;;5.37;;
25331;SDS011;13284;52.748;13.452;2023-11-19T02:15:43;6.57;;;5.20;;
25331;SDS011;13284;52.748;13.452;2023-11-19T02:18:19;8.53;;;5.90;;
25331;SDS011;13284;52.748;13.452;2023-11-19T02:20:49;7.90;;;4.53;;
25331;SDS011;13284;52.748;13.452;2023-11-19T02:23:15;5.73;;;4.97;;
25331;SDS011;13284;52.748;13.452;2023-11-19T02:25:42;5.97;;;4.80;;
25331;SDS011;13284;52.748;13.452;2023-11-19T02:28:10;6.83;;;4.97;;
25331;SDS011;13284;52.748;13.452;2023-11-19T02:30:39;7.50;;;5.53;;
25331;SDS011;13284;52.748;13.452;2023-11-19T02:33:04;6.13;;;5.10;;
25331;SDS011;13284;52.748;13.452;2023-11-19T02:35:30;7.43;;;4.90;;
25331;SDS011;13284;52.748;13.452;2023-11-19T02:37:57;6.07;;;5.47;;
25331;SDS011;13284;52.748;13.452;2023-11-19T02:40:24;5.43;;;4.47;;
25331;SDS011;13284;52.748;13.452;2023-11-19T02:42:53;7.23;;;5.40;;
25331;SDS011;13284;52.748;13.452;2023-11-19T02:45:20;8.10;;;5.90;;
25331;SDS011;13284;52.748;13.452;2023-11-19T02:47:49;7.77;;;5.07;;
25331;SDS011;13284;52.748;13.452;2023-11-19T02:50:15;6.13;;;4.93;;
25331;SDS011;13284;52.748;13.452;2023-11-19T02:52:41;5.03;;;4.33;;
25331;SDS011;13284;52.748;13.452;2023-11-19T02:55:11;6.80;;;4.80;;
25331;SDS011;13284;52.748;13.452;2023-11-19T02:57:44;7.80;;;4.80;;
25331;SDS011;13284;52.748;13.452;2023-11-19T03:00:22;8.83;;;6.60;;
25331;SDS011;13284;52.748;13.452;2023-11-19T03:03:01;6.50;;;5.03;;
25331;SDS011;13284;52.748;13.452;2023-11-19T03:05:42;7.13;;;5.80;;
25331;SDS011;13284;52.748;13.452;2023-11-19T03:08:14;6.27;;;5.23;;
25331;SDS011;13284;52.748;13.452;2023-11-19T03:10:43;6.23;;;5.30;;
25331;SDS011;13284;52.748;13.452;2023-11-19T03:13:14;9.30;;;4.97;;
25331;SDS011;13284;52.748;13.452;2023-11-19T03:15:40;6.40;;;4.93;;
25331;SDS011;13284;52.748;13.452;2023-11-19T03:18:06;6.50;;;4.47;;
25331;SDS011;13284;52.748;13.452;2023-11-19T03:20:32;6.33;;;4.87;;
25331;SDS011;13284;52.748;13.452;2023-11-19T03:23:01;7.00;;;5.10;;
25331;SDS011;13284;52.748;13.452;2023-11-19T03:25:26;7.57;;;5.37;;
25331;SDS011;13284;52.748;13.452;2023-11-19T03:27:58;8.20;;;5.97;;
25331;SDS011;13284;52.748;13.452;2023-11-19T03:30:24;7.33;;;5.40;;
25331;SDS011;13284;52.748;13.452;2023-11-19T03:32:56;6.13;;;4.53;;
25331;SDS011;13284;52.748;13.452;2023-11-19T03:35:22;6.70;;;4.60;;
25331;SDS011;13284;52.748;13.452;2023-11-19T03:37:48;7.43;;;5.07;;
25331;SDS011;13284;52.748;13.452;2023-11-19T03:40:14;10.70;;;5.53;;
25331;SDS011;13284;52.748;13.452;2023-11-19T03:42:40;6.53;;;4.93;;
25331;SDS011;13284;52.748;13.452;2023-11-19T03:45:06;8.70;;;5.37;;
25331;SDS011;13284;52.748;13.452;2023-11-19T03:47:40;6.07;;;5.00;;
25331;SDS011;13284;52.748;13.452;2023-11-19T03:50:06;6.00;;;4.37;;
25331;SDS011;13284;52.748;13.452;2023-11-19T03:52:33;6.23;;;4.77;;
25331;SDS011;13284;52.748;13.452;2023-11-19T03:55:01;5.10;;;4.57;;
25331;SDS011;13284;52.748;13.452;2023-11-19T03:57:28;7.23;;;4.90;;
25331;SDS011;13284;52.748;13.452;2023-11-19T03:59:53;4.60;;;4.20;;
25331;SDS011;13284;52.748;13.452;2023-11-19T04:02:20;5.57;;;4.40;;
25331;SDS011;13284;52.748;13.452;2023-11-19T04:04:46;7.07;;;4.90;;
25331;SDS011;13284;52.748;13.452;2023-11-19T04:07:14;7.47;;;4.80;;
25331;SDS011;13284;52.748;13.452;2023-11-19T04:09:40;5.33;;;4.33;;
25331;SDS011;13284;52.748;13.452;2023-11-19T04:12:06;6.07;;;4.30;;
25331;SDS011;13284;52.748;13.452;2023-11-19T04:14:31;6.20;;;4.87;;
25331;SDS011;13284;52.748;13.452;2023-11-19T04:16:57;4.90;;;4.20;;
25331;SDS011;13284;52.748;13.452;2023-11-19T04:19:22;6.20;;;4.87;;
25331;SDS011;13284;52.748;13.452;2023-11-19T04:21:56;7.00;;;4.93;;
25331;SDS011;13284;52.748;13.452;2023-11-19T04:24:22;6.57;;;3.87;;
25331;SDS011;13284;52.748;13.452;2023-11-19T04:26:47;5.50;;;3.73;;
25331;SDS011;13284;52.748;13.452;2023-11-19T04:29:13;6.57;;;4.43;;
25331;SDS011;13284;52.748;13.452;2023-11-19T04:31:44;4.10;;;3.50;;
25331;SDS011;13284;52.748;13.452;2023-11-19T04:34:10;5.77;;;4.10;;
25331;SDS011;13284;52.748;13.452;2023-11-19T04:36:36;6.80;;;4.30;;
25331;SDS011;13284;52.748;13.452;2023-11-19T04:39:02;5.60;;;4.10;;
25331;SDS011;13284;52.748;13.452;2023-11-19T04:41:45;8.13;;;6.20;;
25331;SDS011;13284;52.748;13.452;2023-11-19T04:44:12;8.80;;;5.87;;
25331;SDS011;13284;52.748;13.452;2023-11-19T04:46:38;8.43;;;6.73;;
25331;SDS011;13284;52.748;13.452;2023-11-19T04:49:11;7.30;;;4.90;;
25331;SDS011;13284;52.748;13.452;2023-11-19T04:51:39;6.10;;;4.60;;
25331;SDS011;13284;52.748;13.452;2023-11-19T04:54:18;5.83;;;4.63;;
25331;SDS011;13284;52.748;13.452;2023-11-19T04:56:47;8.17;;;4.93;;
25331;SDS011;13284;52.748;13.452;2023-11-19T04:59:13;5.03;;;4.20;;
25331;SDS011;13284;52.748;13.452;2023-11-19T05:01:46;6.47;;;4.60;;
25331;SDS011;13284;52.748;13.452;2023-11-19T05:04:11;8.00;;;6.23;;
25331;SDS011;13284;52.748;13.452;2023-11-19T05:06:39;6.10;;;4.70;;
25331;SDS011;13284;52.748;13.452;2023-11-19T05:09:07;8.43;;;4.83;;
25331;SDS011;13284;52.748;13.452;2023-11-19T05:11:38;10.00;;;4.93;;
25331;SDS011;13284;52.748;13.452;2023-11-19T05:14:05;6.40;;;4.90;;
25331;SDS011;13284;52.748;13.452;2023-11-19T05:16:31;6.60;;;4.50;;
25331;SDS011;13284;52.748;13.452;2023-11-19T05:19:00;7.50;;;4.70;;
25331;SDS011;13284;52.748;13.452;2023-11-19T05:21:25;5.60;;;4.37;;
25331;SDS011;13284;52.748;13.452;2023-11-19T05:23:51;5.80;;;4.30;;
25331;SDS011;13284;52.748;13.452;2023-11-19T05:26:17;6.30;;;5.00;;
25331;SDS011;13284;52.748;13.452;2023-11-19T05:28:44;6.37;;;4.97;;
25331;SDS011;13284;52.748;13.452;2023-11-19T05:31:10;5.63;;;4.50;;
25331;SDS011;13284;52.748;13.452;2023-11-19T05:33:35;5.60;;;4.67;;
25331;SDS011;13284;52.748;13.452;2023-11-19T05:36:01;5.87;;;4.20;;
25331;SDS011;13284;52.748;13.452;2023-11-19T05:38:28;6.50;;;4.13;;
25331;SDS011;13284;52.748;13.452;2023-11-19T05:41:00;6.67;;;4.47;;
25331;SDS011;13284;52.748;13.452;2023-11-19T05:43:28;6.27;;;3.80;;
25331;SDS011;13284;52.748;13.452;2023-11-19T05:45:54;8.90;;;4.30;;
25331;SDS011;13284;52.748;13.452;2023-11-19T05:48:29;6.40;;;3.97;;
25331;SDS011;13284;52.748;13.452;2023-11-19T05:50:55;6.60;;;4.10;;
25331;SDS011;13284;52.748;13.452;2023-11-19T05:53:21;4.77;;;3.77;;
25331;SDS011;13284;52.748;13.452;2023-11-19T05:55:52;4.90;;;3.50;;
25331;SDS011;13284;52.748;13.452;2023-11-19T05:58:27;4.80;;;3.80;;
25331;SDS011;13284;52.748;13.452;2023-11-19T06:00:57;4.00;;;3.37;;
25331;SDS011;13284;52.748;13.452;2023-11-19T06:03:23;4.90;;;4.20;;
25331;SDS011;13284;52.748;13.452;2023-11-19T06:05:49;5.20;;;3.93;;
25331;SDS011;13284;52.748;13.452;2023-11-19T06:08:14;4.10;;;3.03;;
25331;SDS011;13284;52.748;13.452;2023-11-19T06:10:42;3.40;;;3.10;;
25331;SDS011;13284;52.748;13.452;2023-11-19T06:13:11;5.43;;;3.37;;
25331;SDS011;13284;52.748;13.452;2023-11-19T06:15:40;3.07;;;2.87;;
25331;SDS011;13284;52.748;13.452;2023-11-19T06:18:06;4.20;;;2.97;;
25331;SDS011;13284;52.748;13.452;2023-11-19T06:20:37;3.43;;;3.13;;
25331;SDS011;13284;52.748;13.452;2023-11-19T06:23:06;4.70;;;3.00;;
25331;SDS011;13284;52.748;13.452;2023-11-19T06:25:32;3.47;;;3.13;;
25331;SDS011;13284;52.748;13.452;2023-11-19T06:28:00;2.90;;;2.53;;
25331;SDS011;13284;52.748;13.452;2023-11-19T06:30:26;3.50;;;3.20;;
25331;SDS011;13284;52.748;13.452;2023-11-19T06:32:58;3.73;;;2.77;;
25331;SDS011;13284;52.748;13.452;2023-11-19T06:35:24;4.00;;;3.20;;
25331;SDS011;13284;52.748;13.452;2023-11-19T06:37:50;3.90;;;2.97;;
25331;SDS011;13284;52.748;13.452;2023-11-19T06:40:15;2.93;;;2.63;;
25331;SDS011;13284;52.748;13.452;2023-11-19T06:42:48;3.07;;;2.33;;
25331;SDS011;13284;52.748;13.452;2023-11-19T06:45:20;2.97;;;2.30;;
25331;SDS011;13284;52.748;13.452;2023-11-19T06:47:45;2.50;;;2.30;;
25331;SDS011;13284;52.748;13.452;2023-11-19T06:50:16;2.80;;;2.57;;
25331;SDS011;13284;52.748;13.452;2023-11-19T06:52:44;3.30;;;2.90;;
25331;SDS011;13284;52.748;13.452;2023-11-19T06:55:20;3.63;;;2.50;;
25331;SDS011;13284;52.748;13.452;2023-11-19T06:57:48;3.30;;;2.63;;
25331;SDS011;13284;52.748;13.452;2023-11-19T07:00:13;3.87;;;2.57;;
25331;SDS011;13284;52.748;13.452;2023-11-19T07:02:43;2.40;;;2.20;;
25331;SDS011;13284;52.748;13.452;2023-11-19T07:05:12;3.60;;;2.90;;
25331;SDS011;13284;52.748;13.452;2023-11-19T07:07:38;2.83;;;2.53;;
25331;SDS011;13284;52.748;13.452;2023-11-19T07:10:05;3.03;;;2.37;;
25331;SDS011;13284;52.748;13.452;2023-11-19T07:12:37;3.00;;;2.40;;
25331;SDS011;13284;52.748;13.452;2023-11-19T07:15:09;2.23;;;2.03;;
25331;SDS011;13284;52.748;13.452;2023-11-19T07:17:44;2.50;;;2.30;;
25331;SDS011;13284;52.748;13.452;2023-11-19T07:20:10;2.57;;;2.23;;
25331;SDS011;13284;52.748;13.452;2023-11-19T07:22:45;3.43;;;2.30;;
25331;SDS011;13284;52.748;13.452;2023-11-19T07:25:13;1.83;;;1.73;;
25331;SDS011;13284;52.748;13.452;2023-11-19T07:27:39;2.50;;;2.30;;
25331;SDS011;13284;52.748;13.452;2023-11-19T07:30:08;2.97;;;1.90;;
25331;SDS011;13284;52.748;13.452;2023-11-19T07:32:36;2.77;;;2.17;;
25331;SDS011;13284;52.748;13.452;2023-11-19T07:35:04;3.30;;;2.20;;
25331;SDS011;13284;52.748;13.452;2023-11-19T07:37:35;3.60;;;2.47;;
25331;SDS011;13284;52.748;13.452;2023-11-19T07:40:00;3.07;;;2.33;;
25331;SDS011;13284;52.748;13.452;2023-11-19T07:42:26;2.83;;;2.40;;
25331;SDS011;13284;52.748;13.452;2023-11-19T07:45:04;3.67;;;2.30;;
25331;SDS011;13284;52.748;13.452;2023-11-19T07:47:30;2.37;;;1.87;;
25331;SDS011;13284;52.748;13.452;2023-11-19T07:49:59;3.17;;;2.50;;
25331;SDS011;13284;52.748;13.452;2023-11-19T07:52:25;2.77;;;2.17;;
25331;SDS011;13284;52.748;13.452;2023-11-19T07:54:50;2.30;;;2.00;;
25331;SDS011;13284;52.748;13.452;2023-11-19T07:57:16;2.33;;;2.13;;
25331;SDS011;13284;52.748;13.452;2023-11-19T07:59:44;2.77;;;2.33;;
25331;SDS011;13284;52.748;13.452;2023-11-19T08:02:10;3.47;;;3.00;;
25331;SDS011;13284;52.748;13.452;2023-11-19T08:04:39;3.10;;;2.90;;
25331;SDS011;13284;52.748;13.452;2023-11-19T08:07:09;3.37;;;2.27;;
25331;SDS011;13284;52.748;13.452;2023-11-19T08:09:36;2.23;;;2.03;;
25331;SDS011;13284;52.748;13.452;2023-11-19T08:12:02;3.57;;;2.63;;
25331;SDS011;13284;52.748;13.452;2023-11-19T08:14:31;2.87;;;2.23;;
25331;SDS011;13284;52.748;13.452;2023-11-19T08:16:57;4.10;;;2.27;;
25331;SDS011;13284;52.748;13.452;2023-11-19T08:19:23;2.90;;;2.07;;
25331;SDS011;13284;52.748;13.452;2023-11-19T08:21:49;3.87;;;2.80;;
25331;SDS011;13284;52.748;13.452;2023-11-19T08:24:14;3.40;;;3.10;;
25331;SDS011;13284;52.748;13.452;2023-11-19T08:26:40;3.43;;;2.83;;
25331;SDS011;13284;52.748;13.452;2023-11-19T08:29:06;4.37;;;3.30;;
25331;SDS011;13284;52.748;13.452;2023-11-19T08:31:32;4.17;;;2.87;;
25331;SDS011;13284;52.748;13.452;2023-11-19T08:33:57;5.63;;;2.67;;
25331;SDS011;13284;52.748;13.452;2023-11-19T08:36:26;2.90;;;2.60;;
25331;SDS011;13284;52.748;13.452;2023-11-19T08:38:52;3.10;;;2.70;;
25331;SDS011;13284;52.748;13.452;2023-11-19T08:41:18;3.20;;;2.90;;
25331;SDS011;13284;52.748;13.452;2023-11-19T08:43:44;3.60;;;2.90;;
25331;SDS011;13284;52.748;13.452;2023-11-19T08:46:30;3.53;;;2.93;;
25331;SDS011;13284;52.748;13.452;2023-11-19T08:48:56;3.60;;;2.97;;
25331;SDS011;13284;52.748;13.452;2023-11-19T08:51:26;4.10;;;3.23;;
25331;SDS011;13284;52.748;13.452;2023-11-19T08:53:53;6.53;;;4.00;;
25331;SDS011;13284;52.748;13.452;2023-11-19T08:56:18;3.77;;;3.47;;
25331;SDS011;13284;52.748;13.452;2023-11-19T08:58:44;6.00;;;3.60;;
25331;SDS011;13284;52.748;13.452;2023-11-19T09:01:09;3.40;;;3.10;;
25331;SDS011;13284;52.748;13.452;2023-11-19T09:03:35;5.87;;;3.67;;
25331;SDS011;13284;52.748;13.452;2023-11-19T09:06:01;3.87;;;3.53;;
25331;SDS011;13284;52.748;13.452;2023-11-19T09:08:30;3.80;;;3.40;;
25331;SDS011;13284;52.748;13.452;2023-11-19T09:10:55;5.23;;;3.70;;
25331;SDS011;13284;52.748;13.452;2023-11-19T09:13:23;4.53;;;3.70;;
25331;SDS011;13284;52.748;13.452;2023-11-19T09:15:49;5.47;;;4.20;;
25331;SDS011;13284;52.748;13.452;2023-11-19T09:18:16;3.87;;;3.13;;
25331;SDS011;13284;52.748;13.452;2023-11-19T09:20:45;6.10;;;4.00;;
25331;SDS011;13284;52.748;13.452;2023-11-19T09:23:16;4.00;;;3.00;;
25331;SDS011;13284;52.748;13.452;2023-11-19T09:25:44;3.97;;;3.57;;
25331;SDS011;13284;52.748;13.452;2023-11-19T09:28:13;3.70;;;3.20;;
25331;SDS011;13284;52.748;13.452;2023-11-19T09:30:41;4.67;;;3.90;;
25331;SDS011;13284;52.748;13.452;2023-11-19T09:33:07;4.97;;;3.90;;
25331;SDS011;13284;52.748;13.452;2023-11-19T09:35:32;4.80;;;3.80;;
25331;SDS011;13284;52.748;13.452;2023-11-19T09:37:58;4.80;;;3.47;;
25331;SDS011;13284;52.748;13.452;2023-11-19T09:40:24;5.60;;;4.00;;
25331;SDS011;13284;52.748;13.452;2023-11-19T09:42:50;4.20;;;3.80;;
25331;SDS011;13284;52.748;13.452;2023-11-19T09:45:16;4.33;;;3.60;;
25331;SDS011;13284;52.748;13.452;2023-11-19T09:47:46;4.87;;;4.30;;
25331;SDS011;13284;52.748;13.452;2023-11-19T09:50:15;5.17;;;3.90;;
25331;SDS011;13284;52.748;13.452;2023-11-19T09:52:43;6.17;;;3.60;;
25331;SDS011;13284;52.748;13.452;2023-11-19T09:55:10;5.30;;;4.00;;
25331;SDS011;13284;52.748;13.452;2023-11-19T09:57:35;5.40;;;3.90;;
25331;SDS011;13284;52.748;13.452;2023-11-19T10:00:04;4.47;;;3.73;;
25331;SDS011;13284;52.748;13.452;2023-11-19T10:02:31;4.70;;;4.00;;
25331;SDS011;13284;52.748;13.452;2023-11-19T10:04:59;5.17;;;4.43;;
25331;SDS011;13284;52.748;13.452;2023-11-19T10:07:27;5.97;;;4.10;;
25331;SDS011;13284;52.748;13.452;2023-11-19T10:09:55;4.83;;;4.00;;
25331;SDS011;13284;52.748;13.452;2023-11-19T10:12:25;4.53;;;3.37;;
25331;SDS011;13284;52.748;13.452;2023-11-19T10:14:56;4.20;;;3.60;;
25331;SDS011;13284;52.748;13.452;2023-11-19T10:17:27;3.93;;;3.53;;
25331;SDS011;13284;52.748;13.452;2023-11-19T10:19:57;2.90;;;2.70;;
25331;SDS011;13284;52.748;13.452;2023-11-19T10:22:23;5.03;;;3.13;;
25331;SDS011;13284;52.748;13.452;2023-11-19T10:24:51;4.13;;;3.70;;
25331;SDS011;13284;52.748;13.452;2023-11-19T10:27:17;3.20;;;2.90;;
25331;SDS011;13284;52.748;13.452;2023-11-19T10:29:46;6.00;;;2.87;;
25331;SDS011;13284;52.748;13.452;2023-11-19T10:32:13;3.60;;;3.30;;
25331;SDS011;13284;52.748;13.452;2023-11-19T10:34:40;3.17;;;2.87;;
25331;SDS011;13284;52.748;13.452;2023-11-19T10:37:09;4.37;;;2.50;;
25331;SDS011;13284;52.748;13.452;2023-11-19T10:39:52;5.20;;;2.80;;
25331;SDS011;13284;52.748;13.452;2023-11-19T10:42:21;2.90;;;2.30;;
25331;SDS011;13284;52.748;13.452;2023-11-19T10:44:46;5.13;;;2.97;;
25331;SDS011;13284;52.748;13.452;2023-11-19T10:47:22;4.43;;;3.73;;
25331;SDS011;13284;52.748;13.452;2023-11-19T10:49:48;4.10;;;2.87;;
25331;SDS011;13284;52.748;13.452;2023-11-19T10:52:17;5.57;;;3.20;;
25331;SDS011;13284;52.748;13.452;2023-11-19T10:54:49;3.73;;;2.70;;
25331;SDS011;13284;52.748;13.452;2023-11-19T10:57:19;4.00;;;2.60;;
25331;SDS011;13284;52.748;13.452;2023-11-19T10:59:49;3.40;;;2.57;;
25331;SDS011;13284;52.748;13.452;2023-11-19T11:02:18;3.87;;;2.90;;
25331;SDS011;13284;52.748;13.452;2023-11-19T11:04:47;3.63;;;2.37;;
25331;SDS011;13284;52.748;13.452;2023-11-19T11:07:17;3.67;;;2.40;;
25331;SDS011;13284;52.748;13.452;2023-11-19T11:09:47;6.53;;;3.20;;
25331;SDS011;13284;52.748;13.452;2023-11-19T11:12:43;6.33;;;3.37;;
25331;SDS011;13284;52.748;13.452;2023-11-19T11:15:18;5.53;;;5.00;;
25331;SDS011;13284;52.748;13.452;2023-11-19T11:17:47;3.80;;;3.17;;
25331;SDS011;13284;52.748;13.452;2023-11-19T11:20:14;3.23;;;2.33;;
25331;SDS011;13284;52.748;13.452;2023-11-19T11:23:04;5.87;;;2.23;;
25331;SDS011;13284;52.748;13.452;2023-11-19T11:25:52;4.67;;;2.43;;
25331;SDS011;13284;52.748;13.452;2023-11-19T11:28:58;3.53;;;1.90;;
25331;SDS011;13284;52.748;13.452;2023-11-19T11:34:26;3.93;;;2.57;;
25331;SDS011;13284;52.748;13.452;2023-11-19T11:39:49;3.70;;;2.90;;
25331;SDS011;13284;52.748;13.452;2023-11-19T11:44:58;10.00;;;2.60;;
25331;SDS011;13284;52.748;13.452;2023-11-19T11:47:25;9.73;;;4.33;;
25331;SDS011;13284;52.748;13.452;2023-11-19T11:49:51;8.10;;;2.70;;
25331;SDS011;13284;52.748;13.452;2023-11-19T11:52:17;9.47;;;3.00;;
25331;SDS011;13284;52.748;13.452;2023-11-19T11:54:43;8.63;;;3.10;;
25331;SDS011;13284;52.748;13.452;2023-11-19T11:57:12;6.33;;;3.87;;
25331;SDS011;13284;52.748;13.452;2023-11-19T12:02:09;4.33;;;2.37;;
25331;SDS011;13284;52.748;13.452;2023-11-19T12:04:47;9.93;;;2.90;;
25331;SDS011;13284;52.748;13.452;2023-11-19T12:07:19;11.10;;;3.30;;
25331;SDS011;13284;52.748;13.452;2023-11-19T12:09:47;9.60;;;3.20;;
25331;SDS011;13284;52.748;13.452;2023-11-19T12:12:18;4.83;;;3.20;;
25331;SDS011;13284;52.748;13.452;2023-11-19T12:17:41;8.27;;;2.90;;
25331;SDS011;13284;52.748;13.452;2023-11-19T12:20:23;5.97;;;2.80;;
25331;SDS011;13284;52.748;13.452;2023-11-19T12:22:53;7.53;;;2.60;;
25331;SDS011;13284;52.748;13.452;2023-11-19T12:25:19;5.60;;;3.30;;
25331;SDS011;13284;52.748;13.452;2023-11-19T12:27:54;13.83;;;3.63;;
25331;SDS011;13284;52.748;13.452;2023-11-19T12:30:23;7.20;;;2.77;;
25331;SDS011;13284;52.748;13.452;2023-11-19T12:32:50;9.40;;;3.37;;
25331;SDS011;13284;52.748;13.452;2023-11-19T12:35:18;3.17;;;2.40;;
25331;SDS011;13284;52.748;13.452;2023-11-19T12:40:22;5.23;;;2.40;;
25331;SDS011;13284;52.748;13.452;2023-11-19T12:42:49;8.03;;;3.03;;
25331;SDS011;13284;52.748;13.452;2023-11-19T12:45:16;5.90;;;2.40;;
25331;SDS011;13284;52.748;13.452;2023-11-19T12:47:44;9.93;;;3.00;;
25331;SDS011;13284;52.748;13.452;2023-11-19T12:50:12;12.80;;;3.27;;
25331;SDS011;13284;52.748;13.452;2023-11-19T12:52:37;8.37;;;3.57;;
25331;SDS011;13284;52.748;13.452;2023-11-19T12:55:04;10.07;;;3.07;;
25331;SDS011;13284;52.748;13.452;2023-11-19T12:57:40;9.77;;;2.60;;
25331;SDS011;13284;52.748;13.452;2023-11-19T13:00:07;5.10;;;2.77;;
25331;SDS011;13284;52.748;13.452;2023-11-19T13:02:49;11.90;;;3.03;;
25331;SDS011;13284;52.748;13.452;2023-11-19T13:05:36;5.50;;;2.47;;
25331;SDS011;13284;52.748;13.452;2023-11-19T13:08:03;9.03;;;3.00;;
25331;SDS011;13284;52.748;13.452;2023-11-19T13:10:34;6.43;;;2.30;;
25331;SDS011;13284;52.748;13.452;2023-11-19T13:13:14;11.47;;;2.77;;
25331;SDS011;13284;52.748;13.452;2023-11-19T13:15:40;11.63;;;3.33;;
25331;SDS011;13284;52.748;13.452;2023-11-19T13:18:06;9.43;;;2.73;;
25331;SDS011;13284;52.748;13.452;2023-11-19T13:20:32;8.20;;;2.93;;
25331;SDS011;13284;52.748;13.452;2023-11-19T13:22:58;9.93;;;2.60;;
25331;SDS011;13284;52.748;13.452;2023-11-19T13:25:26;9.83;;;3.63;;
25331;SDS011;13284;52.748;13.452;2023-11-19T13:27:52;9.63;;;2.60;;
25331;SDS011;13284;52.748;13.452;2023-11-19T13:30:18;8.33;;;2.50;;
25331;SDS011;13284;52.748;13.452;2023-11-19T13:32:44;11.40;;;3.33;;
25331;SDS011;13284;52.748;13.452;2023-11-19T13:35:14;9.80;;;3.20;;
25331;SDS011;13284;52.748;13.452;2023-11-19T13:37:40;5.50;;;2.40;;
25331;SDS011;13284;52.748;13.452;2023-11-19T13:40:12;12.70;;;2.10;;
25331;SDS011;13284;52.748;13.452;2023-11-19T13:42:43;3.50;;;2.10;;
25331;SDS011;13284;52.748;13.452;2023-11-19T13:45:12;5.97;;;1.97;;
25331;SDS011;13284;52.748;13.452;2023-11-19T13:47:42;8.30;;;2.87;;
25331;SDS011;13284;52.748;13.452;2023-11-19T13:50:12;10.10;;;2.80;;
25331;SDS011;13284;52.748;13.452;2023-11-19T13:56:10;8.43;;;2.50;;
25331;SDS011;13284;52.748;13.452;2023-11-19T13:58:48;11.10;;;3.10;;
25331;SDS011;13284;52.748;13.452;2023-11-19T14:01:55;8.73;;;2.50;;
25331;SDS011;13284;52.748;13.452;2023-11-19T14:04:29;6.70;;;3.10;;
25331;SDS011;13284;52.748;13.452;2023-11-19T14:06:56;12.20;;;3.30;;
25331;SDS011;13284;52.748;13.452;2023-11-19T14:09:22;12.03;;;2.53;;
25331;SDS011;13284;52.748;13.452;2023-11-19T14:11:48;8.97;;;2.67;;
25331;SDS011;13284;52.748;13.452;2023-11-19T14:14:16;7.40;;;2.87;;
25331;SDS011;13284;52.748;13.452;2023-11-19T14:16:41;8.87;;;2.53;;
25331;SDS011;13284;52.748;13.452;2023-11-19T14:19:07;8.93;;;2.53;;
25331;SDS011;13284;52.748;13.452;2023-11-19T14:21:33;9.97;;;3.53;;
25331;SDS011;13284;52.748;13.452;2023-11-19T14:23:58;10.47;;;3.07;;
25331;SDS011;13284;52.748;13.452;2023-11-19T14:26:24;11.87;;;4.07;;
25331;SDS011;13284;52.748;13.452;2023-11-19T14:28:49;6.63;;;3.60;;
25331;SDS011;13284;52.748;13.452;2023-11-19T14:31:15;9.23;;;3.23;;
25331;SDS011;13284;52.748;13.452;2023-11-19T14:33:40;9.43;;;2.67;;
25331;SDS011;13284;52.748;13.452;2023-11-19T14:36:08;13.33;;;3.43;;
25331;SDS011;13284;52.748;13.452;2023-11-19T14:38:34;8.87;;;2.63;;
25331;SDS011;13284;52.748;13.452;2023-11-19T14:41:01;13.13;;;3.20;;
25331;SDS011;13284;52.748;13.452;2023-11-19T14:43:27;6.43;;;3.07;;
25331;SDS011;13284;52.748;13.452;2023-11-19T14:45:52;11.23;;;2.63;;
25331;SDS011;13284;52.748;13.452;2023-11-19T14:48:17;14.67;;;3.03;;
25331;SDS011;13284;52.748;13.452;2023-11-19T14:50:43;15.60;;;2.80;;
25331;SDS011;13284;52.748;13.452;2023-11-19T14:53:21;12.90;;;4.10;;
25331;SDS011;13284;52.748;13.452;2023-11-19T14:55:47;11.20;;;3.33;;
25331;SDS011;13284;52.748;13.452;2023-11-19T14:58:13;8.13;;;3.00;;
25331;SDS011;13284;52.748;13.452;2023-11-19T15:00:40;12.93;;;4.13;;
25331;SDS011;13284;52.748;13.452;2023-11-19T15:03:06;10.63;;;2.27;;